Time;durP1;ratioP1;P1;durP2;ratioP2;P2;SDS_P1;SDS_P2;PMS_P1;PMS_P2;Temp;Humidity;BMP_temperature;BMP_pressure;BME280_temperature;BME280_humidity;BME280_pressure;Samples;Min_cycle;Max_cycle;Signal;HPM_P1;HPM_P2
2022/07/22 00:02:11;;;;;;;3.30;2.33;;;;;;;27.28;39.47;100696.24;1751410;80;21035;-81
2022/07/22 00:04:38;;;;;;;3.47;2.10;;;;;;;27.28;39.45;100700.44;1751314;82;21047;-81
2022/07/22 00:07:04;;;;;;;3.75;2.50;;;;;;;27.29;39.45;100698.45;1751334;80;21078;-81
2022/07/22 00:09:32;;;;;;;5.20;2.40;;;;;;;27.28;39.47;100701.05;1751391;81;21392;-81
2022/07/22 00:11:58;;;;;;;3.75;2.40;;;;;;;27.28;39.45;100704.42;1751106;80;21173;-81
2022/07/22 00:14:25;;;;;;;3.62;2.10;;;;;;;27.28;39.44;100706.64;1751517;80;21373;-81
2022/07/22 00:16:51;;;;;;;2.58;2.30;;;;;;;27.28;39.45;100710.02;1751550;82;21046;-82
2022/07/22 00:19:18;;;;;;;2.47;2.27;;;;;;;27.28;39.44;100710.83;1751020;81;21043;-81
2022/07/22 00:21:44;;;;;;;2.72;2.02;;;;;;;27.28;39.45;100717.81;1751441;80;20998;-82
2022/07/22 00:24:10;;;;;;;2.40;2.20;;;;;;;27.28;39.43;100715.02;1751515;81;21529;-81
2022/07/22 00:26:37;;;;;;;2.90;2.02;;;;;;;27.28;39.44;100715.02;1751207;81;20978;-81
2022/07/22 00:29:03;;;;;;;2.80;2.30;;;;;;;27.28;39.46;100711.41;1751474;80;21050;-82
2022/07/22 00:31:30;;;;;;;2.65;1.95;;;;;;;27.28;39.45;100714.20;1751373;80;21038;-82
2022/07/22 00:33:57;;;;;;;2.75;2.20;;;;;;;27.28;39.46;100710.02;1751079;81;21557;-81
2022/07/22 00:36:24;;;;;;;3.37;2.30;;;;;;;27.28;39.47;100706.64;1731984;82;22125;-82
2022/07/22 00:38:50;;;;;;;2.50;2.10;;;;;;;27.26;39.46;100706.99;1751329;80;21043;-81
2022/07/22 00:41:17;;;;;;;2.87;2.00;;;;;;;27.26;39.46;100712.58;1751349;80;21046;-80
2022/07/22 00:44:05;;;;;;;2.75;2.30;;;;;;;27.26;39.48;100712.58;1751483;80;21014;-81
2022/07/22 00:46:31;;;;;;;2.70;1.92;;;;;;;27.28;39.45;100712.81;1751348;80;21513;-81
2022/07/22 00:48:58;;;;;;;4.33;2.25;;;;;;;27.26;39.43;100711.77;1751720;80;21698;-82
2022/07/22 00:51:25;;;;;;;3.25;2.52;;;;;;;27.26;39.42;100710.37;1751541;80;21050;-82
2022/07/22 00:53:52;;;;;;;2.80;2.00;;;;;;;27.25;39.42;100712.34;1731936;82;21466;-82
2022/07/22 00:56:18;;;;;;;2.60;1.95;;;;;;;27.25;39.45;100716.54;1751679;80;21015;-82
2022/07/22 00:58:52;;;;;;;3.77;2.40;;;;;;;27.25;39.45;100715.14;1751367;80;21015;-80
2022/07/22 01:01:18;;;;;;;2.50;2.30;;;;;;;27.26;39.44;100711.77;1751224;81;21170;-81
2022/07/22 01:03:45;;;;;;;3.42;2.20;;;;;;;27.25;39.42;100717.12;1751401;80;21003;-81
2022/07/22 01:06:17;;;;;;;2.87;1.98;;;;;;;27.26;39.45;100709.78;1751321;82;21743;-81
2022/07/22 01:08:43;;;;;;;3.90;2.30;;;;;;;27.25;39.47;100711.53;1751244;80;21090;-81
2022/07/22 01:11:18;;;;;;;3.72;2.30;;;;;;;27.25;39.50;100715.14;1757967;80;20999;-81
2022/07/22 01:13:45;;;;;;;4.22;2.30;;;;;;;27.25;39.50;100708.73;1758851;81;21844;-81
2022/07/22 01:16:12;;;;;;;2.77;2.10;;;;;;;27.24;39.52;100704.36;1758710;80;20987;-81
2022/07/22 01:18:38;;;;;;;2.55;2.08;;;;;;;27.24;39.52;100705.14;1758820;80;21101;-82
2022/07/22 01:21:06;;;;;;;2.62;2.30;;;;;;;27.24;39.52;100714.91;1758622;80;20930;-81
2022/07/22 01:23:32;;;;;;;3.22;2.47;;;;;;;27.24;39.54;100714.91;1758574;80;21051;-82
2022/07/22 01:25:58;;;;;;;3.05;2.30;;;;;;;27.24;39.54;100710.72;1759062;81;21493;-81
2022/07/22 01:28:25;;;;;;;4.37;2.62;;;;;;;27.23;39.56;100715.30;1758963;80;21058;-82
2022/07/22 01:30:51;;;;;;;2.95;2.00;;;;;;;27.24;39.54;100721.89;1758788;81;21003;-82
2022/07/22 01:33:19;;;;;;;3.27;2.22;;;;;;;27.24;39.56;100724.69;1758999;80;21074;-82
2022/07/22 01:35:46;;;;;;;3.47;2.35;;;;;;;27.24;39.54;100732.28;1759352;80;21002;-82
2022/07/22 01:38:13;;;;;;;3.47;2.10;;;;;;;27.24;39.54;100726.08;1758661;80;21761;-81
2022/07/22 01:40:39;;;;;;;2.52;2.30;;;;;;;27.24;39.54;100728.09;1758795;80;21066;-81
2022/07/22 01:43:06;;;;;;;3.58;2.20;;;;;;;27.23;39.56;100732.87;1758967;80;21492;-81
2022/07/22 01:45:32;;;;;;;5.00;2.17;;;;;;;27.23;39.56;100732.87;1758390;81;21497;-81
2022/07/22 01:47:59;;;;;;;2.80;2.30;;;;;;;27.24;39.54;100733.69;1758579;80;21042;-81
2022/07/22 01:50:25;;;;;;;2.83;2.10;;;;;;;27.23;39.49;100720.30;1758738;80;21671;-82
2022/07/22 01:52:52;;;;;;;3.02;2.25;;;;;;;27.22;39.51;100725.66;1758523;80;20935;-81
2022/07/22 01:55:18;;;;;;;2.67;2.20;;;;;;;27.24;39.50;100719.72;1758722;80;21327;-81
2022/07/22 01:57:45;;;;;;;3.05;2.12;;;;;;;27.23;39.48;100722.28;1758591;80;21070;-82
2022/07/22 02:00:12;;;;;;;2.85;2.17;;;;;;;27.23;39.51;100713.31;1758551;80;21548;-81
2022/07/22 02:02:38;;;;;;;3.10;2.00;;;;;;;27.23;39.52;100710.52;1758740;81;21131;-82
2022/07/22 02:05:07;;;;;;;2.92;2.27;;;;;;;27.23;39.50;100713.31;1758864;81;21034;-82
2022/07/22 02:07:34;;;;;;;2.67;1.95;;;;;;;27.23;39.49;100716.11;1758593;80;21077;-82
2022/07/22 02:10:00;;;;;;;3.05;1.72;;;;;;;27.22;39.52;100708.90;1758427;80;21521;-82
2022/07/22 02:12:27;;;;;;;3.50;2.55;;;;;;;27.22;39.52;100704.70;1728724;81;21153;-82
2022/07/22 02:14:53;;;;;;;2.60;1.95;;;;;;;27.23;39.52;100708.31;1758216;80;21165;-82
2022/07/22 02:17:20;;;;;;;3.58;2.52;;;;;;;27.22;39.53;100703.89;1728743;81;21034;-81
2022/07/22 02:19:46;;;;;;;2.50;2.02;;;;;;;27.21;39.55;100704.48;1758934;80;20999;-82
2022/07/22 02:22:13;;;;;;;3.25;2.30;;;;;;;27.22;39.55;100698.30;1758583;80;21086;-81
2022/07/22 02:24:39;;;;;;;3.52;2.37;;;;;;;27.22;39.52;100701.91;1758524;81;21030;-81
2022/07/22 02:27:06;;;;;;;3.17;2.15;;;;;;;27.22;39.54;100699.70;1758990;80;21132;-82
2022/07/22 02:29:33;;;;;;;3.77;2.30;;;;;;;27.22;39.54;100699.70;1758676;81;21493;-81
2022/07/22 02:31:59;;;;;;;2.80;2.37;;;;;;;27.23;39.53;100705.52;1758972;80;21070;-82
2022/07/22 02:34:26;;;;;;;3.15;2.50;;;;;;;27.22;39.51;100705.29;1758775;80;20987;-81
2022/07/22 02:36:53;;;;;;;3.65;2.25;;;;;;;27.23;39.51;100711.92;1758506;81;21061;-81
2022/07/22 02:39:19;;;;;;;2.72;2.30;;;;;;;27.21;39.51;100713.44;1758732;80;21117;-81
2022/07/22 02:41:45;;;;;;;3.12;2.05;;;;;;;27.21;39.48;100715.65;1759048;80;21022;-81
2022/07/22 02:44:12;;;;;;;2.55;2.10;;;;;;;27.21;39.47;100717.05;1758697;80;20999;-82
2022/07/22 02:46:38;;;;;;;3.27;2.08;;;;;;;27.21;39.46;100712.86;1759113;80;21519;-81
2022/07/22 02:49:05;;;;;;;3.10;2.27;;;;;;;27.21;39.45;100710.65;1758864;81;21549;-81
2022/07/22 02:51:31;;;;;;;3.17;2.27;;;;;;;27.21;39.44;100714.25;1758718;81;21022;-81
2022/07/22 02:53:58;;;;;;;2.83;2.10;;;;;;;27.22;39.44;100709.48;1758762;81;21066;-82
2022/07/22 02:56:24;;;;;;;2.75;2.08;;;;;;;27.21;39.44;100713.44;1759014;80;21073;-82
2022/07/22 02:58:57;;;;;;;3.98;2.20;;;;;;;27.21;39.45;100717.05;1758508;80;21595;-81
2022/07/22 03:01:23;;;;;;;3.75;2.30;;;;;;;27.21;39.46;100716.23;1759109;80;20995;-81
2022/07/22 03:03:50;;;;;;;4.65;2.58;;;;;;;27.20;39.46;100718.22;1758981;81;21098;-81
2022/07/22 03:06:16;;;;;;;2.90;2.17;;;;;;;27.21;39.47;100717.63;1758710;80;20979;-81
2022/07/22 03:08:48;;;;;;;3.27;2.05;;;;;;;27.21;39.47;100720.42;1758668;80;21059;-82
2022/07/22 03:11:15;;;;;;;3.92;2.08;;;;;;;27.20;39.43;100715.42;1758714;80;21038;-82
2022/07/22 03:13:41;;;;;;;2.52;2.02;;;;;;;27.20;39.42;100721.01;1758754;81;21043;-82
2022/07/22 03:16:08;;;;;;;2.80;2.05;;;;;;;27.19;39.42;100727.79;1758953;80;21120;-81
2022/07/22 03:18:35;;;;;;;2.67;2.10;;;;;;;27.20;39.42;100734.97;1758961;80;21031;-82
2022/07/22 03:21:01;;;;;;;3.42;2.10;;;;;;;27.20;39.41;100734.97;1758726;80;21089;-81
2022/07/22 03:23:28;;;;;;;2.77;2.02;;;;;;;27.20;39.41;100736.37;1759134;80;21552;-81
2022/07/22 03:25:56;;;;;;;2.65;1.85;;;;;;;27.21;39.42;100732.99;1758896;80;21046;-81
2022/07/22 03:28:23;;;;;;;3.45;2.08;;;;;;;27.19;39.41;100725.00;1758955;80;21158;-81
2022/07/22 03:30:49;;;;;;;2.87;2.15;;;;;;;27.19;39.41;100737.56;1759058;80;20947;-81
2022/07/22 03:33:16;;;;;;;2.92;2.15;;;;;;;27.19;39.40;100729.19;1759139;80;21077;-81
2022/07/22 03:35:42;;;;;;;4.87;2.30;;;;;;;27.20;39.39;100731.40;1758709;80;21593;-81
2022/07/22 03:38:09;;;;;;;3.35;1.92;;;;;;;27.19;39.39;100734.77;1759130;80;21446;-81
2022/07/22 03:40:35;;;;;;;2.83;2.05;;;;;;;27.20;39.40;100732.80;1759036;80;21067;-81
2022/07/22 03:43:02;;;;;;;3.47;2.20;;;;;;;27.20;39.41;100735.59;1758607;80;21061;-81
2022/07/22 03:45:28;;;;;;;2.42;1.85;;;;;;;27.20;39.40;100736.98;1758939;80;21077;-82
2022/07/22 03:47:57;;;;;;;3.70;2.20;;;;;;;27.20;39.41;100741.17;1759004;80;20999;-81
2022/07/22 03:50:23;;;;;;;4.83;2.15;;;;;;;27.20;39.40;100746.76;1758623;80;21496;-81
2022/07/22 03:52:50;;;;;;;3.83;1.95;;;;;;;27.19;39.41;100745.95;1758946;80;21114;-81
2022/07/22 03:55:16;;;;;;;3.70;2.15;;;;;;;27.20;39.40;100735.59;1758851;80;21424;-81
2022/07/22 03:57:43;;;;;;;2.45;2.08;;;;;;;27.20;39.41;100741.95;1758518;80;21551;-81
2022/07/22 04:00:11;;;;;;;3.87;2.05;;;;;;;27.21;39.41;100741.38;1758907;80;21046;-81
2022/07/22 04:02:38;;;;;;;3.08;1.98;;;;;;;27.21;39.40;100749.17;1758906;80;21536;-81
2022/07/22 04:05:06;;;;;;;3.58;2.17;;;;;;;27.20;39.40;100746.14;1758591;80;21847;-82
2022/07/22 04:07:32;;;;;;;2.60;1.80;;;;;;;27.20;39.40;100744.75;1758667;80;21569;-82
2022/07/22 04:10:04;;;;;;;3.05;2.10;;;;;;;27.21;39.40;100751.15;1728677;80;21042;-81
2022/07/22 04:12:38;;;;;;;3.83;2.20;;;;;;;27.21;39.41;100753.94;1722842;82;21588;-80
2022/07/22 04:15:06;;;;;;;3.27;2.15;;;;;;;27.20;39.41;100751.73;1723143;81;21488;-82
2022/07/22 04:17:33;;;;;;;3.47;2.15;;;;;;;27.21;39.42;100751.15;1722909;82;21507;-82
2022/07/22 04:20:00;;;;;;;3.37;1.95;;;;;;;27.20;39.43;100749.55;1722787;81;20966;-81
2022/07/22 04:22:33;;;;;;;2.35;1.85;;;;;;;27.20;39.42;100748.16;1723287;81;21042;-82
2022/07/22 04:25:00;;;;;;;2.72;2.27;;;;;;;27.20;39.47;100748.16;1703576;83;21112;-82
2022/07/22 04:27:26;;;;;;;2.80;2.02;;;;;;;27.20;39.48;100744.75;1722750;82;21069;-81
2022/07/22 04:29:52;;;;;;;2.75;2.08;;;;;;;27.21;39.46;100746.96;1723245;82;21607;-81
2022/07/22 04:32:19;;;;;;;3.45;2.40;;;;;;;27.20;39.46;100746.14;1723299;81;20970;-82
2022/07/22 04:34:46;;;;;;;3.42;2.27;;;;;;;27.20;39.47;100746.14;1722969;81;21049;-81
2022/07/22 04:37:12;;;;;;;3.87;2.22;;;;;;;27.21;39.50;100756.73;1723278;81;21053;-80
2022/07/22 04:39:39;;;;;;;4.30;2.10;;;;;;;27.20;39.47;100751.73;1723250;81;21073;-81
2022/07/22 04:42:05;;;;;;;3.52;2.15;;;;;;;27.20;39.47;100753.13;1723093;82;22023;-81
2022/07/22 04:44:32;;;;;;;2.40;1.95;;;;;;;27.21;39.47;100760.34;1723170;82;21053;-81
2022/07/22 04:46:59;;;;;;;3.05;1.95;;;;;;;27.22;39.45;100759.76;1723008;81;20994;-82
2022/07/22 04:49:25;;;;;;;3.08;2.27;;;;;;;27.21;39.45;100759.53;1723034;81;21532;-82
2022/07/22 04:51:52;;;;;;;2.30;2.00;;;;;;;27.21;39.48;100767.91;1723186;81;21528;-81
2022/07/22 04:54:19;;;;;;;3.15;1.92;;;;;;;27.21;39.52;100767.91;1723030;81;21126;-81
2022/07/22 04:56:48;;;;;;;2.40;2.00;;;;;;;27.22;39.50;100768.14;1722783;81;21009;-83
2022/07/22 04:59:14;;;;;;;3.35;2.30;;;;;;;27.22;39.48;100766.74;1702713;82;21072;-83
2022/07/22 05:01:41;;;;;;;3.10;2.05;;;;;;;27.21;39.48;100763.72;1723216;83;21030;-83
2022/07/22 05:04:13;;;;;;;3.58;1.87;;;;;;;27.21;39.48;100767.91;1723206;82;21041;-83
2022/07/22 05:06:39;;;;;;;4.97;2.02;;;;;;;27.20;39.47;100766.31;1723291;82;21831;-83
2022/07/22 05:09:06;;;;;;;5.55;2.10;;;;;;;27.19;39.15;100768.29;1723316;82;21061;-82
2022/07/22 05:11:32;;;;;;;2.92;1.67;;;;;;;27.16;38.93;100766.20;1725621;81;21057;-82
2022/07/22 05:13:59;;;;;;;5.85;1.82;;;;;;;27.15;38.66;100766.00;1728001;81;21112;-82
2022/07/22 05:16:25;;;;;;;4.30;1.60;;;;;;;27.12;38.38;100759.72;1728023;81;21571;-82
2022/07/22 05:18:52;;;;;;;6.30;1.87;;;;;;;27.11;38.39;100762.32;1727676;81;21549;-81
2022/07/22 05:21:18;;;;;;;8.98;2.00;;;;;;;27.11;38.26;100765.11;1727668;81;20985;-82
2022/07/22 05:23:45;;;;;;;5.50;2.00;;;;;;;27.10;38.00;100762.67;1728238;83;21000;-82
2022/07/22 05:26:11;;;;;;;2.70;2.00;;;;;;;27.09;38.05;100770.23;1727164;82;21097;-82
2022/07/22 05:28:38;;;;;;;5.15;1.67;;;;;;;27.09;38.09;100766.05;1727348;81;21116;-83
2022/07/22 05:31:05;;;;;;;6.15;2.50;;;;;;;27.08;37.90;100771.98;1727763;81;21096;-83
2022/07/22 05:33:31;;;;;;;7.45;1.90;;;;;;;27.08;37.83;100776.17;1727100;81;21999;-83
2022/07/22 05:35:58;;;;;;;4.30;2.20;;;;;;;27.07;37.55;100769.80;1726577;81;21060;-82
2022/07/22 05:38:24;;;;;;;4.28;1.90;;;;;;;27.06;37.52;100772.95;1727837;81;21033;-81
2022/07/22 05:40:50;;;;;;;7.37;2.02;;;;;;;27.08;37.55;100775.59;1722578;82;21009;-82
2022/07/22 05:43:17;;;;;;;4.55;1.80;;;;;;;27.07;37.44;100778.77;1722795;83;20982;-83
2022/07/22 05:45:43;;;;;;;3.20;1.72;;;;;;;27.07;37.32;100786.56;1722691;82;21073;-83
2022/07/22 05:48:10;;;;;;;4.47;1.80;;;;;;;27.06;37.11;100778.53;1712061;82;21050;-83
2022/07/22 05:50:36;;;;;;;3.40;2.20;;;;;;;27.07;37.07;100778.77;1727865;81;21061;-82
2022/07/22 05:53:03;;;;;;;6.72;2.20;;;;;;;27.06;37.00;100779.34;1693512;83;21120;-82
2022/07/22 05:55:29;;;;;;;5.20;1.65;;;;;;;27.07;36.81;100780.97;1722440;82;21111;-83
2022/07/22 05:57:56;;;;;;;4.60;1.70;;;;;;;27.06;36.70;100779.34;1727891;81;21065;-82
2022/07/22 06:00:22;;;;;;;5.15;1.70;;;;;;;27.07;36.70;100781.55;1727899;81;21022;-83
2022/07/22 06:02:49;;;;;;;4.53;1.72;;;;;;;27.07;36.57;100787.14;1727603;81;21081;-81
2022/07/22 06:05:15;;;;;;;6.37;1.80;;;;;;;27.08;36.41;100790.95;1727957;81;21040;-82
2022/07/22 06:07:42;;;;;;;2.90;1.30;;;;;;;27.08;36.38;100794.32;1727874;83;21587;-82
2022/07/22 06:10:08;;;;;;;4.03;1.67;;;;;;;27.08;36.12;100784.55;1727554;81;21439;-82
2022/07/22 06:12:35;;;;;;;2.45;1.40;;;;;;;27.09;35.94;100786.17;1727651;81;21073;-82
2022/07/22 06:15:01;;;;;;;3.45;1.50;;;;;;;27.08;35.76;100789.55;1721290;81;21090;-82
2022/07/22 06:17:28;;;;;;;2.98;1.15;;;;;;;27.08;35.66;100792.34;1727627;81;21033;-82
2022/07/22 06:19:54;;;;;;;5.30;1.30;;;;;;;27.08;35.40;100792.34;1727943;81;21777;-82
2022/07/22 06:22:22;;;;;;;2.72;1.47;;;;;;;27.08;35.34;100790.95;1727629;81;21523;-83
2022/07/22 06:24:49;;;;;;;3.20;1.05;;;;;;;27.08;35.11;100792.34;1727091;81;21134;-83
2022/07/22 06:27:15;;;;;;;4.47;1.27;;;;;;;27.08;34.97;100787.34;1717540;81;21076;-83
2022/07/22 06:29:42;;;;;;;3.95;1.37;;;;;;;27.09;34.75;100792.58;1727064;81;20995;-83
2022/07/22 06:32:09;;;;;;;3.25;1.10;;;;;;;27.09;34.79;100791.77;1721816;82;21132;-82
2022/07/22 06:34:35;;;;;;;2.92;1.10;;;;;;;27.09;34.79;100788.97;1727554;81;21013;-82
2022/07/22 06:37:02;;;;;;;4.60;1.37;;;;;;;27.10;34.58;100789.20;1727569;81;21034;-82
2022/07/22 06:39:28;;;;;;;3.92;1.05;;;;;;;27.09;34.62;100787.58;1726847;81;21093;-83
2022/07/22 06:41:55;;;;;;;3.10;0.95;;;;;;;27.10;34.48;100790.02;1727236;81;21072;-82
2022/07/22 06:44:21;;;;;;;3.45;0.98;;;;;;;27.10;34.26;100785.83;1742173;81;21015;-82
2022/07/22 06:46:47;;;;;;;5.47;1.17;;;;;;;27.10;33.97;100790.02;1746138;80;21046;-82
2022/07/22 06:49:14;;;;;;;1.42;1.00;;;;;;;27.10;33.96;100785.83;1696809;83;21060;-82
2022/07/22 06:51:47;;;;;;;6.08;1.10;;;;;;;27.10;33.91;100787.80;1747623;80;21065;-83
2022/07/22 06:54:13;;;;;;;2.00;0.90;;;;;;;27.11;33.72;100791.64;1725917;81;21088;-83
2022/07/22 06:56:40;;;;;;;3.67;1.12;;;;;;;27.12;33.65;100794.64;1727066;81;21587;-82
2022/07/22 06:59:06;;;;;;;2.87;0.90;;;;;;;27.14;33.53;100792.89;1726734;81;21563;-82
2022/07/22 07:01:33;;;;;;;4.20;1.20;;;;;;;27.14;33.40;100792.89;1726181;81;21560;-82
2022/07/22 07:03:59;;;;;;;3.83;0.88;;;;;;;27.15;33.38;100791.72;1724001;81;21924;-83
2022/07/22 07:06:26;;;;;;;1.85;1.25;;;;;;;27.15;33.31;100790.33;1764000;80;21049;-82
2022/07/22 07:08:52;;;;;;;4.85;1.10;;;;;;;27.15;33.36;100792.53;1756864;80;21948;-83
2022/07/22 07:11:19;;;;;;;2.65;1.15;;;;;;;27.18;33.36;100788.20;1773872;80;21166;-82
2022/07/22 07:13:45;;;;;;;1.82;0.98;;;;;;;27.19;33.37;100787.84;1756814;80;21121;-82
2022/07/22 07:16:12;;;;;;;2.25;1.30;;;;;;;27.19;33.38;100787.03;1732480;81;21084;-82
2022/07/22 07:18:38;;;;;;;5.20;1.30;;;;;;;27.20;33.33;100784.47;1730527;81;21080;-82
2022/07/22 07:21:05;;;;;;;1.75;1.02;;;;;;;27.21;33.26;100792.46;1725348;80;21643;-82
2022/07/22 07:23:32;;;;;;;2.05;1.12;;;;;;;27.22;33.29;100789.90;1767797;78;21048;-83
2022/07/22 07:25:58;;;;;;;2.70;1.20;;;;;;;27.23;33.24;100788.73;1792434;78;21029;-83
2022/07/22 07:28:25;;;;;;;3.95;0.95;;;;;;;27.25;33.20;100789.75;1792634;78;21089;-82
2022/07/22 07:30:51;;;;;;;2.80;1.25;;;;;;;27.26;33.15;100793.59;1739337;80;21075;-83
2022/07/22 07:33:18;;;;;;;2.65;1.17;;;;;;;27.27;33.10;100788.81;1729804;82;21082;-83
2022/07/22 07:35:44;;;;;;;2.47;1.02;;;;;;;27.28;33.10;100795.41;1729473;81;21399;-83
2022/07/22 07:38:11;;;;;;;6.92;1.30;;;;;;;27.28;33.10;100794.02;1728876;81;21142;-82
2022/07/22 07:40:37;;;;;;;2.83;1.20;;;;;;;27.30;33.11;100796.45;1729558;82;21154;-83
2022/07/22 07:43:04;;;;;;;2.15;1.12;;;;;;;27.30;33.01;100792.85;1723632;81;21071;-82
2022/07/22 07:45:30;;;;;;;4.00;1.30;;;;;;;27.32;32.93;100800.30;1740535;81;21626;-82
2022/07/22 07:47:58;;;;;;;3.00;1.27;;;;;;;27.32;32.95;100790.52;1733304;80;21093;-81
2022/07/22 07:50:25;;;;;;;6.62;1.42;;;;;;;27.33;32.95;100790.13;1732454;80;21111;-81
2022/07/22 07:52:51;;;;;;;3.83;1.25;;;;;;;27.34;32.95;100798.75;1700406;83;21038;-82
2022/07/22 07:55:18;;;;;;;3.45;1.22;;;;;;;27.36;32.93;100792.22;1749906;81;21032;-81
2022/07/22 07:57:48;;;;;;;2.02;1.20;;;;;;;27.37;32.90;100792.42;1737086;81;21581;-81
2022/07/22 08:00:13;;;;;;;3.60;1.20;;;;;;;27.39;32.81;100794.86;1728630;81;21477;-82
2022/07/22 08:02:39;;;;;;;2.35;1.40;;;;;;;27.38;32.79;100794.05;1719877;81;21054;-83
2022/07/22 08:05:07;;;;;;;2.27;1.32;;;;;;;27.40;32.79;100789.50;1706572;83;21064;-83
2022/07/22 08:07:39;;;;;;;2.87;1.47;;;;;;;27.40;32.80;100796.49;1729184;81;21031;-84
2022/07/22 08:10:06;;;;;;;3.75;1.40;;;;;;;27.41;32.76;100789.16;1728108;83;21215;-83
2022/07/22 08:12:33;;;;;;;4.92;1.30;;;;;;;27.41;32.72;100796.72;1730557;80;20981;-83
2022/07/22 08:14:59;;;;;;;2.25;1.17;;;;;;;27.42;32.63;100792.73;1749126;80;21044;-84
2022/07/22 08:17:26;;;;;;;2.37;1.22;;;;;;;27.43;32.73;100791.56;1752587;82;21026;-84
2022/07/22 08:19:53;;;;;;;2.22;1.22;;;;;;;27.44;32.83;100790.39;1730896;80;21565;-82
2022/07/22 08:22:19;;;;;;;3.00;1.42;;;;;;;27.44;32.76;100788.41;1748870;82;21117;-83
2022/07/22 08:24:46;;;;;;;4.72;1.40;;;;;;;27.45;32.72;100786.44;1741003;81;21049;-84
2022/07/22 08:27:12;;;;;;;3.98;1.65;;;;;;;27.45;32.77;100785.84;1751293;82;21006;-82
2022/07/22 08:29:39;;;;;;;3.25;1.30;;;;;;;27.47;32.72;100783.52;1750992;80;21037;-82
2022/07/22 08:32:05;;;;;;;7.00;1.37;;;;;;;27.47;32.68;100786.31;1749671;82;21103;-82
2022/07/22 08:34:32;;;;;;;3.52;1.42;;;;;;;27.49;32.57;100788.75;1746800;81;21913;-82
2022/07/22 08:36:58;;;;;;;4.12;1.55;;;;;;;27.49;32.49;100783.16;1750374;80;21076;-82
2022/07/22 08:39:24;;;;;;;3.10;1.45;;;;;;;27.51;32.38;100789.17;1750585;81;21057;-83
2022/07/22 08:41:51;;;;;;;5.17;1.50;;;;;;;27.51;32.27;100788.59;1752185;80;21091;-82
2022/07/22 08:44:17;;;;;;;2.72;1.25;;;;;;;27.52;32.17;100783.82;1762504;79;21594;-82
2022/07/22 08:46:45;;;;;;;3.75;1.62;;;;;;;27.52;32.10;100784.63;1752347;80;22026;-82
2022/07/22 08:49:15;;;;;;;2.58;1.42;;;;;;;27.53;32.07;100784.86;1766968;79;20964;-82
2022/07/22 08:51:44;;;;;;;3.33;1.27;;;;;;;27.54;32.09;100784.28;1776204;80;21034;-82
2022/07/22 08:54:16;;;;;;;4.28;1.62;;;;;;;27.55;32.13;100781.69;1759438;79;21512;-82
2022/07/22 08:56:48;;;;;;;4.85;1.57;;;;;;;27.55;32.19;100785.87;1757265;80;21079;-81
2022/07/22 08:59:14;;;;;;;2.90;1.40;;;;;;;27.56;32.21;100788.90;1757128;80;21643;-81
2022/07/22 09:02:03;;;;;;;5.17;1.60;;;;;;;27.57;32.22;100788.55;1744158;80;21056;-83
2022/07/22 09:04:37;;;;;;;3.27;1.62;;;;;;;27.58;32.17;100790.75;1736301;80;21116;-82
2022/07/22 09:07:03;;;;;;;3.90;1.40;;;;;;;27.59;32.14;100790.37;1739225;80;21088;-84
2022/07/22 09:09:33;;;;;;;2.25;1.70;;;;;;;27.60;32.19;100781.40;1762359;80;21073;-83
2022/07/22 09:12:07;;;;;;;3.47;1.42;;;;;;;27.61;32.17;100782.44;1758874;80;21188;-82
2022/07/22 09:14:47;;;;;;;3.72;1.67;;;;;;;27.63;32.06;100782.06;1766631;80;21062;-82
2022/07/22 09:17:35;;;;;;;3.17;1.50;;;;;;;27.63;31.93;100784.85;1758984;80;21074;-83
2022/07/22 09:20:11;;;;;;;2.58;1.50;;;;;;;27.65;31.94;100776.92;1771527;78;21062;-82
2022/07/22 09:22:45;;;;;;;2.85;1.47;;;;;;;27.65;31.96;100778.32;1748570;80;21113;-83
2022/07/22 09:25:30;;;;;;;3.42;1.62;;;;;;;27.65;32.05;100785.31;1757977;80;21075;-83
2022/07/22 09:28:11;;;;;;;2.80;1.62;;;;;;;27.66;32.08;100778.55;1757531;80;21608;-83
2022/07/22 09:30:41;;;;;;;3.67;1.60;;;;;;;27.65;32.12;100783.91;1756557;81;21098;-83
2022/07/22 09:33:14;;;;;;;2.95;1.50;;;;;;;27.67;32.05;100780.15;1754917;80;21099;-83
2022/07/22 09:35:41;;;;;;;3.40;1.60;;;;;;;27.67;32.01;100782.36;1757649;80;21589;-83
2022/07/22 09:38:09;;;;;;;4.70;1.80;;;;;;;27.69;32.00;100777.22;1757926;81;21733;-83
2022/07/22 09:40:42;;;;;;;3.92;1.57;;;;;;;27.70;31.97;100769.66;1757536;80;21023;-83
2022/07/22 09:43:12;;;;;;;3.27;1.40;;;;;;;27.70;31.96;100769.06;1729016;81;21127;-83
2022/07/22 09:45:50;;;;;;;;;;;;;;;27.72;31.96;100765.89;1758257;80;21036;-83
2022/07/22 09:48:18;;;;;;;4.03;1.17;;;;;;;27.71;31.87;100763.67;1763000;78;20193;-84
2022/07/22 09:50:44;;;;;;;7.17;1.70;;;;;;;27.71;31.90;100761.47;1740026;80;21647;-83
2022/07/22 09:53:11;;;;;;;4.70;1.50;;;;;;;27.73;31.84;100758.31;1757500;80;21572;-83
2022/07/22 09:55:38;;;;;;;3.62;1.45;;;;;;;27.75;31.83;100763.77;1757982;80;20991;-84
2022/07/22 09:58:07;;;;;;;3.45;1.87;;;;;;;27.77;31.83;100767.00;1766829;80;21045;-83
2022/07/22 10:00:33;;;;;;;3.45;1.30;;;;;;;27.77;31.83;100760.01;1737059;81;21059;-84
2022/07/22 10:03:02;;;;;;;3.90;1.90;;;;;;;27.79;31.90;100767.45;1756140;80;21101;-83
2022/07/22 10:05:31;;;;;;;2.58;1.62;;;;;;;27.80;31.88;100759.27;1757760;80;21008;-83
2022/07/22 10:07:57;;;;;;;3.45;1.50;;;;;;;27.82;31.86;100761.70;1758743;81;21046;-82
2022/07/22 10:10:25;;;;;;;3.22;1.55;;;;;;;27.82;31.78;100756.92;1758280;80;21057;-82
2022/07/22 10:12:55;;;;;;;4.12;1.57;;;;;;;27.86;31.71;100748.61;1758656;80;21051;-82
2022/07/22 10:15:23;;;;;;;7.30;1.32;;;;;;;27.85;31.71;100751.98;1772000;80;21868;-82
2022/07/22 10:17:52;;;;;;;6.03;1.98;;;;;;;27.87;31.73;100755.82;1758395;80;21080;-82
2022/07/22 10:20:22;;;;;;;4.50;2.03;;;;;;;27.87;31.70;100751.63;1758879;80;21033;-82
2022/07/22 10:22:57;;;;;;;4.33;1.80;;;;;;;27.87;31.68;100747.44;1757827;80;21749;-82
2022/07/22 10:25:26;;;;;;;5.10;1.65;;;;;;;27.88;31.62;100751.85;1758405;80;21069;-82
2022/07/22 10:27:57;;;;;;;6.10;1.77;;;;;;;27.90;31.46;100756.47;1758879;80;21004;-82
2022/07/22 10:30:29;;;;;;;5.25;1.87;;;;;;;27.91;31.35;100752.51;1758452;81;21057;-82
2022/07/22 10:33:17;;;;;;;5.17;1.60;;;;;;;27.90;31.28;100751.69;1758744;80;21050;-81
2022/07/22 10:36:02;;;;;;;5.22;1.70;;;;;;;27.91;31.21;100749.13;1730825;81;21117;-82
2022/07/22 10:38:30;;;;;;;3.83;2.00;;;;;;;27.92;31.18;100750.72;1758712;80;21034;-82
2022/07/22 10:41:04;;;;;;;3.72;1.80;;;;;;;27.92;31.14;100746.52;1758971;80;21517;-82
2022/07/22 10:43:45;;;;;;;8.35;2.20;;;;;;;27.93;31.00;100748.16;1757282;80;21121;-82
2022/07/22 10:46:12;;;;;;;10.55;2.10;;;;;;;27.95;30.95;100750.59;1754401;80;21057;-82
2022/07/22 10:48:44;;;;;;;5.37;1.92;;;;;;;27.96;30.89;100739.63;1757330;80;21082;-82
2022/07/22 10:51:17;;;;;;;4.75;1.40;;;;;;;27.96;30.93;100739.63;1758501;80;21055;-82
2022/07/22 10:54:04;;;;;;;2.72;1.45;;;;;;;27.97;30.90;100739.83;1757189;80;21179;-82
2022/07/22 10:56:38;;;;;;;4.58;1.50;;;;;;;27.98;30.81;100738.66;1770773;80;21033;-82
2022/07/22 10:59:16;;;;;;;2.45;1.55;;;;;;;27.99;30.76;100740.28;1772540;80;21028;-82
2022/07/22 11:01:49;;;;;;;3.10;1.42;;;;;;;27.99;30.69;100746.69;1766565;80;21575;-81
2022/07/22 11:04:19;;;;;;;6.47;1.80;;;;;;;28.00;30.64;100743.30;1727447;82;21006;-83
2022/07/22 11:06:47;;;;;;;4.05;1.65;;;;;;;28.00;30.57;100734.92;1728163;82;21937;-81
2022/07/22 11:09:18;;;;;;;2.80;1.70;;;;;;;27.99;30.59;100741.09;1720206;83;21044;-81
2022/07/22 11:11:53;;;;;;;5.10;1.70;;;;;;;28.00;30.63;100734.92;1719893;83;21059;-81
2022/07/22 11:14:27;;;;;;;3.15;1.32;;;;;;;28.00;30.68;100736.31;1730585;81;21677;-81
2022/07/22 11:17:00;;;;;;;5.10;1.90;;;;;;;28.01;30.72;100735.11;1730977;81;21035;-81
2022/07/22 11:19:28;;;;;;;2.60;1.70;;;;;;;28.01;30.70;100737.32;1730724;81;22087;-81
2022/07/22 11:21:57;;;;;;;2.62;1.57;;;;;;;28.01;30.62;100727.53;1729127;81;21070;-81
2022/07/22 11:24:25;;;;;;;2.72;1.67;;;;;;;28.02;30.59;100731.95;1728697;82;21061;-81
2022/07/22 11:26:54;;;;;;;4.20;1.80;;;;;;;28.06;30.62;100724.44;1728935;82;21713;-82
2022/07/22 11:29:29;;;;;;;4.20;1.60;;;;;;;28.10;30.58;100718.36;1716556;82;21134;-81